createdAt,value
2022-08-08T00:00:55.558Z,13.84
2022-08-08T00:04:28.019Z,13.85
2022-08-08T00:09:33.176Z,13.75
2022-08-08T00:14:56.938Z,13.61
2022-08-08T00:19:37.921Z,13.54
2022-08-08T00:24:42.085Z,13.49
2022-08-08T00:29:46.960Z,13.41
2022-08-08T00:34:50.407Z,13.33
2022-08-08T00:41:09.056Z,13.21
2022-08-08T00:44:59.034Z,13.20
2022-08-08T00:50:02.863Z,13.16
2022-08-08T00:55:07.021Z,13.08
2022-08-08T01:00:09.357Z,12.99
2022-08-08T01:05:42.594Z,12.86
2022-08-08T01:10:17.621Z,12.80
2022-08-08T01:15:26.123Z,12.74
2022-08-08T01:20:25.948Z,12.62
2022-08-08T01:25:40.283Z,12.58
2022-08-08T01:30:34.251Z,12.52
2022-08-08T01:35:40.537Z,12.47
2022-08-08T01:40:42.617Z,12.33
2022-08-08T01:45:54.217Z,12.26
2022-08-08T01:50:50.942Z,12.20
2022-08-08T01:56:28.110Z,12.19
2022-08-08T02:00:59.344Z,12.11
2022-08-08T02:06:03.421Z,12.05
2022-08-08T02:11:07.560Z,11.95
2022-08-08T02:16:21.259Z,11.90
2022-08-08T02:21:18.258Z,11.85
2022-08-08T02:26:20.044Z,11.81
2022-08-08T02:31:58.648Z,11.80
2022-08-08T02:36:28.553Z,11.71
2022-08-08T02:41:58.723Z,11.66
2022-08-08T02:46:34.823Z,11.59
2022-08-08T02:51:55.155Z,11.58
2022-08-08T02:56:41.229Z,11.48
2022-08-08T03:01:50.275Z,11.41
2022-08-08T03:06:47.670Z,11.34
2022-08-08T03:12:02.096Z,11.35
2022-08-08T03:16:56.004Z,11.27
2022-08-08T03:22:00.286Z,11.21
2022-08-08T03:27:04.323Z,11.15
2022-08-08T03:32:08.835Z,11.14
2022-08-08T03:37:58.875Z,11.09
2022-08-08T03:42:28.779Z,11.00
2022-08-08T03:47:20.935Z,10.93
2022-08-08T03:52:25.130Z,10.90
2022-08-08T03:58:30.142Z,10.88
2022-08-08T04:02:47.732Z,10.88
2022-08-08T04:07:37.577Z,10.81
2022-08-08T04:12:41.799Z,10.82
2022-08-08T04:17:58.947Z,10.80
2022-08-08T04:22:51.393Z,10.82
2022-08-08T04:28:34.322Z,10.79
2022-08-08T04:32:58.396Z,10.87
2022-08-08T04:38:02.549Z,10.87
2022-08-08T04:43:08.913Z,10.86
2022-08-08T04:48:10.915Z,10.89
2022-08-08T04:53:14.145Z,10.98
2022-08-08T04:58:17.576Z,11.00
2022-08-08T05:04:09.808Z,11.04
2022-08-08T05:08:26.998Z,11.10
2022-08-08T05:13:27.922Z,11.16
2022-08-08T05:18:32.034Z,11.25
2022-08-08T05:23:41.333Z,11.35
2022-08-08T05:28:56.410Z,11.39
2022-08-08T05:33:49.555Z,11.49
2022-08-08T05:38:48.702Z,11.66
2022-08-08T05:44:03.153Z,11.79
2022-08-08T05:48:57.016Z,11.94
2022-08-08T05:54:27.539Z,12.06
2022-08-08T05:59:05.344Z,12.29
2022-08-08T06:04:13.738Z,12.50
2022-08-08T06:10:00.311Z,12.83
2022-08-08T06:14:18.102Z,13.08
2022-08-08T06:19:24.047Z,13.40
2022-08-08T06:24:30.465Z,13.73
2022-08-08T06:29:59.264Z,13.98
2022-08-08T06:34:34.451Z,14.36
2022-08-08T06:39:38.699Z,14.58
2022-08-08T06:44:42.830Z,14.81
2022-08-08T06:49:56.148Z,14.97
2022-08-08T06:54:49.238Z,15.20
2022-08-08T07:00:10.158Z,15.47
2022-08-08T07:04:55.737Z,15.76
2022-08-08T07:10:00.245Z,16.08
2022-08-08T07:15:02.081Z,16.45
2022-08-08T07:20:06.264Z,16.65
2022-08-08T07:25:10.411Z,16.90
2022-08-08T07:30:19.710Z,17.14
2022-08-08T07:35:18.742Z,17.47
2022-08-08T07:40:29.880Z,17.72
2022-08-08T07:45:34.959Z,17.86
2022-08-08T07:50:31.205Z,18.09
2022-08-08T07:55:36.390Z,18.34
2022-08-08T08:00:39.605Z,18.67
2022-08-08T08:05:43.706Z,18.92
2022-08-08T08:10:47.871Z,19.18
2022-08-08T08:15:52.024Z,19.44
2022-08-08T08:20:56.206Z,19.56
2022-08-08T08:26:00.323Z,19.85
2022-08-08T08:31:04.606Z,20.05
2022-08-08T08:36:17.921Z,20.26
2022-08-08T08:41:13.310Z,20.41
2022-08-08T08:46:17.759Z,20.55
2022-08-08T08:51:21.105Z,20.83
2022-08-08T08:56:23.940Z,20.99
2022-08-08T09:01:27.550Z,21.24
2022-08-08T09:06:34.094Z,21.43
2022-08-08T09:11:33.972Z,21.64
2022-08-08T09:16:36.237Z,21.83
2022-08-08T09:21:56.280Z,21.87
2022-08-08T09:26:47.152Z,22.09
2022-08-08T09:31:56.773Z,22.30
2022-08-08T09:37:58.080Z,22.22
2022-08-08T09:42:20.604Z,22.37
2022-08-08T09:47:05.645Z,22.58
2022-08-08T09:52:08.005Z,22.68
2022-08-08T09:57:16.047Z,23.03
2022-08-08T10:02:13.001Z,23.09
2022-08-08T10:07:16.347Z,23.28
2022-08-08T10:12:27.157Z,23.30
2022-08-08T10:17:56.507Z,23.36
2022-08-08T10:22:28.792Z,23.55
2022-08-08T10:27:34.178Z,23.70
2022-08-08T10:32:37.771Z,23.77
2022-08-08T10:37:40.885Z,24.03
2022-08-08T10:42:45.282Z,24.24
2022-08-08T10:47:55.505Z,24.08
2022-08-08T10:52:53.384Z,23.98
2022-08-08T10:57:57.522Z,24.35
2022-08-08T11:02:59.821Z,24.43
2022-08-08T11:08:31.099Z,24.37
2022-08-08T11:13:29.593Z,24.64
2022-08-08T11:18:10.414Z,24.62
2022-08-08T11:23:14.580Z,24.81
2022-08-08T11:28:18.940Z,24.98
2022-08-08T11:33:22.861Z,24.95
2022-08-08T11:38:36.039Z,25.13
2022-08-08T11:43:38.969Z,25.25
2022-08-08T11:48:35.353Z,25.48
2022-08-08T11:58:43.633Z,25.58
2022-08-08T12:03:47.961Z,25.41
2022-08-08T12:08:51.999Z,25.54
2022-08-08T12:14:03.907Z,25.59
2022-08-08T12:19:00.292Z,25.70
2022-08-08T12:24:04.470Z,25.82
2022-08-08T12:29:08.594Z,26.10
2022-08-08T12:34:12.748Z,26.12
2022-08-08T12:39:16.944Z,26.12
2022-08-08T12:44:32.011Z,26.21
2022-08-08T12:49:45.036Z,26.51
2022-08-08T12:54:36.552Z,26.66
2022-08-08T12:59:44.533Z,26.10
2022-08-08T13:04:35.819Z,26.51
2022-08-08T13:09:43.038Z,26.52
2022-08-08T13:14:52.907Z,26.45
2022-08-08T13:19:50.260Z,26.80
2022-08-08T13:24:50.722Z,26.53
2022-08-08T13:29:54.736Z,26.75
2022-08-08T13:34:59.187Z,26.87
2022-08-08T13:40:03.093Z,26.79
2022-08-08T13:45:07.199Z,26.87
2022-08-08T13:50:34.609Z,27.03
2022-08-08T13:55:29.004Z,26.67
2022-08-08T14:00:19.734Z,26.78
2022-08-08T14:05:27.339Z,26.42
2022-08-08T14:10:33.396Z,26.78
2022-08-08T14:15:39.562Z,26.85
2022-08-08T14:20:57.537Z,26.78
2022-08-08T14:25:40.475Z,27.02
2022-08-08T14:30:47.666Z,27.12
2022-08-08T14:35:49.652Z,27.13
2022-08-08T14:40:52.932Z,27.01
2022-08-08T14:46:02.872Z,27.15
2022-08-08T14:51:01.282Z,26.77
2022-08-08T14:56:05.449Z,26.43
2022-08-08T15:01:08.137Z,26.89
2022-08-08T15:06:11.841Z,27.10
2022-08-08T15:11:20.637Z,27.25
2022-08-08T15:16:18.280Z,27.13
2022-08-08T15:21:22.477Z,27.09
2022-08-08T15:26:28.855Z,27.10
2022-08-08T15:31:55.926Z,27.20
2022-08-08T15:36:34.970Z,26.88
2022-08-08T15:41:44.058Z,26.96
2022-08-08T15:46:45.424Z,27.27
2022-08-08T15:51:47.395Z,28.13
2022-08-08T15:56:51.572Z,28.72
2022-08-08T16:02:00.532Z,31.03
2022-08-08T16:06:59.878Z,32.23
2022-08-08T16:13:05.264Z,32.84
2022-08-08T16:17:08.240Z,32.53
2022-08-08T16:22:30.448Z,32.31
2022-08-08T16:27:17.975Z,32.40
2022-08-08T16:32:25.339Z,32.84
2022-08-08T16:37:24.980Z,32.67
2022-08-08T16:42:29.356Z,32.74
2022-08-08T16:47:42.380Z,31.53
2022-08-08T16:55:03.423Z,31.09
2022-08-08T16:58:14.412Z,30.86
2022-08-08T17:02:43.976Z,31.00
2022-08-08T17:07:51.190Z,27.88
2022-08-08T17:12:53.156Z,27.25
2022-08-08T17:18:02.399Z,26.46
2022-08-08T17:23:16.379Z,25.94
2022-08-08T17:28:04.542Z,25.64
2022-08-08T17:34:37.498Z,25.30
2022-08-08T17:38:12.863Z,24.92
2022-08-08T17:43:17.006Z,24.74
2022-08-08T17:48:29.333Z,24.45
2022-08-08T17:53:42.753Z,24.14
2022-08-08T17:58:29.507Z,23.97
2022-08-08T18:03:33.697Z,23.73
2022-08-08T18:08:41.799Z,23.52
2022-08-08T18:13:43.969Z,23.38
2022-08-08T18:18:53.860Z,23.26
2022-08-08T18:23:55.774Z,23.09
2022-08-08T18:28:55.351Z,22.89
2022-08-08T18:34:11.221Z,22.73
2022-08-08T18:39:02.876Z,22.59
2022-08-08T18:44:05.021Z,22.50
2022-08-08T18:49:11.217Z,22.33
2022-08-08T18:54:21.864Z,22.08
2022-08-08T18:59:17.501Z,21.90
2022-08-08T19:04:21.753Z,21.77
2022-08-08T19:09:48.931Z,21.60
2022-08-08T19:14:30.010Z,21.43
2022-08-08T19:19:34.171Z,21.25
2022-08-08T19:24:48.788Z,21.08
2022-08-08T19:29:45.926Z,20.82
2022-08-08T19:34:46.647Z,20.66
2022-08-08T19:39:51.199Z,20.53
2022-08-08T19:44:54.975Z,20.41
2022-08-08T19:49:59.576Z,20.23
2022-08-08T19:55:05.130Z,20.09
2022-08-08T20:00:11.244Z,19.94
2022-08-08T20:05:12.147Z,19.89
2022-08-08T20:10:15.743Z,19.78
2022-08-08T20:15:21.842Z,19.69
2022-08-08T20:20:24.070Z,19.64
2022-08-08T20:25:29.821Z,19.53
2022-08-08T20:30:52.989Z,19.45
2022-08-08T20:35:58.108Z,19.33
2022-08-08T20:40:39.259Z,19.19
2022-08-08T20:45:58.203Z,19.18
2022-08-08T20:50:45.247Z,19.16
2022-08-08T20:55:51.129Z,19.05
2022-08-08T21:00:53.550Z,18.90
2022-08-08T21:05:58.702Z,18.78
2022-08-08T21:11:01.885Z,18.73
2022-08-08T21:16:18.071Z,18.72
2022-08-08T21:21:10.204Z,18.57
2022-08-08T21:26:21.006Z,18.42
2022-08-08T21:31:21.953Z,18.30
2022-08-08T21:36:28.431Z,18.28
2022-08-08T21:41:38.636Z,18.24
2022-08-08T21:48:07.424Z,18.21
2022-08-08T21:54:23.306Z,18.14
2022-08-08T21:56:43.474Z,18.12
2022-08-08T22:01:43.528Z,18.12
2022-08-08T22:06:47.628Z,18.10
2022-08-08T22:12:04.556Z,18.00
2022-08-08T22:16:55.983Z,18.01
2022-08-08T22:22:00.122Z,17.97
2022-08-08T22:27:03.288Z,17.90
2022-08-08T22:32:06.533Z,17.91
2022-08-08T22:37:27.616Z,17.87
2022-08-08T22:42:27.056Z,17.76
2022-08-08T22:47:19.025Z,17.67
2022-08-08T22:52:26.108Z,17.73
2022-08-08T22:57:27.335Z,17.66
2022-08-08T23:02:31.666Z,17.61
2022-08-08T23:07:56.837Z,17.45
2022-08-08T23:12:41.437Z,17.41
2022-08-08T23:17:54.174Z,17.39
2022-08-08T23:22:48.151Z,17.37
2022-08-08T23:27:54.434Z,17.32
2022-08-08T23:32:56.435Z,17.22
2022-08-08T23:38:02.839Z,17.13
2022-08-08T23:43:04.796Z,17.06
2022-08-08T23:49:04.473Z,16.94
2022-08-08T23:53:14.409Z,16.93
2022-08-08T23:58:31.820Z,16.85
